»·PEaware :: UAL576 KSLC-KPSP

UAL576 :: KSLC-KPSP

FLIGHT INFORMATION

Flight Status: Arrived
Operator:
United Airlines
More flights by this operator :: More flights under this callsign
Pilot: Anonymous 8274 (8274)
Aircraft: BOEING 737-300
(B733)
More flights by this aircraft type
Origin: KSLC Salt Lake City Intl
United States
Destination: KPSP Palm Springs Intl
United States
More flights between these airports :: More routes between these airports
Route: +EDETH5 BCE J11 CORKR LAKRR Q73 HAKMN GFS SBONO1
File this flight plan on PilotEdge
Remarks: Scenic Charter Flight - Intentional Longer Route
Altitude:
(Current/Filed)
28,000ft
Speed:
(Current/Filed)
440kts
Departed: 23-Dec-17 08:19 PM
Arrived: 23-Dec-17 10:18 PM
Distance/Time
Traveled:
470nm/1:59
Distance/Time
To Go:
Arrived

Flight Plot

Page will automatically refresh every two minutes.

Flight plan parsing failed; only flown route is shown


Map Options




Map Legend


Flown Route
Filed Route
Departure Airport
Arrival Airport
Navaid (VOR, NDB)
Fix

Horizontal Profiles

Position Reports

Time Latitude Longitude Heading Altitude Ground
Speed
23-Dec-17 19:51 40.784931 -111.978979 360 4234ft 0kts
23-Dec-17 19:52 40.784931 -111.978979 360 4234ft 0kts
23-Dec-17 19:53 40.784931 -111.978979 360 4234ft 0kts
23-Dec-17 19:54 40.784931 -111.978979 360 4234ft 0kts
23-Dec-17 19:55 40.784931 -111.978979 360 4234ft 0kts
23-Dec-17 19:56 40.784931 -111.978979 360 4234ft 0kts
23-Dec-17 19:57 40.784931 -111.978979 360 4234ft 0kts
23-Dec-17 19:58 40.784931 -111.978979 360 4234ft 0kts
23-Dec-17 19:59 40.784931 -111.978979 360 4234ft 0kts
23-Dec-17 20:00 40.784931 -111.978979 360 4234ft 0kts
23-Dec-17 20:01 40.784931 -111.978979 360 4234ft 0kts
23-Dec-17 20:02 40.784931 -111.978979 360 4234ft 0kts
23-Dec-17 20:03 40.784931 -111.978979 360 4234ft 0kts
23-Dec-17 20:04 40.784931 -111.978979 360 4234ft 0kts
23-Dec-17 20:05 40.784931 -111.978979 360 4234ft 0kts
23-Dec-17 20:06 40.784931 -111.978979 360 4234ft 0kts
23-Dec-17 20:07 40.784931 -111.978979 360 4234ft 0kts
23-Dec-17 20:08 40.784931 -111.978979 360 4234ft 0kts
23-Dec-17 20:09 40.784931 -111.978979 360 4234ft 0kts
23-Dec-17 20:10 40.784931 -111.978979 360 4234ft 0kts
23-Dec-17 20:11 40.784931 -111.978979 360 4234ft 0kts
23-Dec-17 20:12 40.784786 -111.978964 352 4234ft 2kts
23-Dec-17 20:13 40.784199 -111.978900 355 4234ft 2kts
23-Dec-17 20:14 40.783829 -111.978890 18 4234ft 0kts
23-Dec-17 20:15 40.783830 -111.978890 18 4234ft 0kts
23-Dec-17 20:16 40.783830 -111.978890 18 4234ft 0kts
23-Dec-17 20:17 40.783915 -111.978852 19 4234ft 1kts
23-Dec-17 20:18 40.784046 -111.977869 85 4234ft 0kts
23-Dec-17 20:19 40.784048 -111.977832 85 4234ft 1kts
23-Dec-17 20:20 40.782242 -111.976187 174 4234ft 19kts
23-Dec-17 20:21 40.776355 -111.975017 175 4234ft 23kts
23-Dec-17 20:22 40.774667 -111.974762 149 4234ft 0kts
23-Dec-17 20:23 40.774667 -111.974762 149 4234ft 0kts
23-Dec-17 20:24 40.774500 -111.974121 73 4234ft 12kts
23-Dec-17 20:25 40.785572 -111.974398 354 4234ft 125kts
23-Dec-17 20:26 40.827125 -111.979364 354 5567ft 158kts
23-Dec-17 20:27 40.868621 -112.016132 279 6766ft 232kts
23-Dec-17 20:28 40.837820 -112.095870 236 8802ft 278kts
23-Dec-17 20:29 40.814070 -112.194566 258 10745ft 316kts
23-Dec-17 20:30 40.749749 -112.276857 199 12662ft 365kts
23-Dec-17 20:31 40.647637 -112.298428 194 15101ft 386kts
23-Dec-17 20:32 40.540434 -112.316687 198 17265ft 399kts
23-Dec-17 20:33 40.429030 -112.340078 199 19246ft 415kts
23-Dec-17 20:34 40.316340 -112.371165 219 21049ft 402kts
23-Dec-17 20:35 40.217406 -112.442957 220 22777ft 415kts
23-Dec-17 20:36 40.114546 -112.515537 220 24396ft 427kts
23-Dec-17 20:37 40.009415 -112.589493 221 26042ft 434kts
23-Dec-17 20:38 39.903794 -112.663609 221 27415ft 444kts
23-Dec-17 20:39 39.797097 -112.738009 221 28355ft 441kts
23-Dec-17 20:40 39.690157 -112.812451 220 28315ft 437kts
23-Dec-17 20:41 39.561253 -112.837199 198 28325ft 477kts
23-Dec-17 20:42 39.430321 -112.856465 199 28320ft 474kts
23-Dec-17 20:43 39.299465 -112.875925 199 28321ft 474kts
23-Dec-17 20:44 39.169027 -112.895226 199 28331ft 473kts
23-Dec-17 20:45 39.039299 -112.914364 199 28320ft 472kts
23-Dec-17 20:46 38.909485 -112.933435 199 28321ft 472kts
23-Dec-17 20:47 38.785262 -112.951519 199 28320ft 472kts
23-Dec-17 20:48 38.655496 -112.970413 197 28266ft 467kts
23-Dec-17 20:49 38.526515 -112.989182 197 28268ft 468kts
23-Dec-17 20:50 38.397386 -113.007877 196 28267ft 468kts
23-Dec-17 20:51 38.277427 -112.943617 126 28282ft 524kts
23-Dec-17 20:52 38.174938 -112.814967 144 28268ft 518kts
23-Dec-17 20:53 38.064652 -112.698132 143 28267ft 517kts
23-Dec-17 20:54 37.954505 -112.581619 143 28247ft 518kts
23-Dec-17 20:55 37.847070 -112.468632 143 28233ft 517kts
23-Dec-17 20:56 37.736915 -112.353088 143 28241ft 517kts
23-Dec-17 20:57 37.617769 -112.288379 202 28246ft 457kts
23-Dec-17 20:58 37.492712 -112.315681 193 28242ft 468kts
23-Dec-17 20:59 37.363368 -112.323700 192 28243ft 467kts
23-Dec-17 21:00 37.233670 -112.331543 192 28240ft 467kts
23-Dec-17 21:01 37.104575 -112.339349 192 28239ft 466kts
23-Dec-17 21:02 36.976015 -112.347102 192 28250ft 465kts
23-Dec-17 21:03 36.851534 -112.354619 192 28265ft 466kts
23-Dec-17 21:04 36.721964 -112.362356 192 28296ft 467kts
23-Dec-17 21:05 36.592843 -112.370072 192 28293ft 466kts
23-Dec-17 21:06 36.463211 -112.377789 192 28295ft 467kts
23-Dec-17 21:07 36.349126 -112.384558 191 28294ft 467kts
23-Dec-17 21:08 36.219638 -112.392210 191 28294ft 467kts
23-Dec-17 21:09 36.093785 -112.410108 219 28289ft 432kts
23-Dec-17 21:10 36.066326 -112.524725 297 28301ft 376kts
23-Dec-17 21:11 36.085076 -112.649891 275 28296ft 380kts
23-Dec-17 21:12 36.086890 -112.778464 273 28294ft 381kts
23-Dec-17 21:13 36.087683 -112.908880 273 28235ft 381kts
23-Dec-17 21:14 36.088214 -113.018311 272 28229ft 390kts
23-Dec-17 21:15 36.088776 -113.176308 272 28269ft 395kts
23-Dec-17 21:16 36.089095 -113.311935 272 28266ft 395kts
23-Dec-17 21:17 36.089245 -113.424725 272 28267ft 395kts
23-Dec-17 21:18 36.089294 -113.583091 272 28267ft 395kts
23-Dec-17 21:19 36.089191 -113.693492 271 28257ft 395kts
23-Dec-17 21:20 36.088931 -113.826517 271 28272ft 395kts
23-Dec-17 21:21 36.088545 -113.956158 271 28294ft 395kts
23-Dec-17 21:22 36.087994 -114.091556 271 28292ft 396kts
23-Dec-17 21:23 36.087288 -114.227749 271 28294ft 396kts
23-Dec-17 21:24 36.044599 -114.349324 228 28282ft 422kts
23-Dec-17 21:25 35.964697 -114.453650 233 28295ft 419kts
23-Dec-17 21:26 35.890047 -114.556640 233 28269ft 419kts
23-Dec-17 21:27 35.819403 -114.653667 233 28292ft 419kts
23-Dec-17 21:28 35.742512 -114.759514 233 28295ft 419kts
23-Dec-17 21:29 35.664690 -114.866084 233 28293ft 419kts
23-Dec-17 21:30 35.588788 -114.969430 233 28293ft 418kts
23-Dec-17 21:31 35.510588 -115.074636 225 28277ft 424kts
23-Dec-17 21:32 35.392355 -115.110214 196 28299ft 448kts
23-Dec-17 21:33 35.271553 -115.140512 197 28260ft 447kts
23-Dec-17 21:34 35.149788 -115.171682 198 28262ft 446kts
23-Dec-17 21:35 35.036914 -115.218561 206 27593ft 422kts
23-Dec-17 21:36 34.927199 -115.266972 206 26614ft 423kts
23-Dec-17 21:37 34.859095 -115.296737 206 25963ft 424kts
23-Dec-17 21:38 34.748564 -115.345037 205 24982ft 425kts
23-Dec-17 21:39 34.637826 -115.393543 205 24240ft 426kts
23-Dec-17 21:40 34.526714 -115.442094 205 24307ft 427kts
23-Dec-17 21:41 34.418613 -115.489165 206 21922ft 405kts
23-Dec-17 21:42 34.318366 -115.537782 225 19810ft 368kts
23-Dec-17 21:43 34.245551 -115.619995 228 17694ft 367kts
23-Dec-17 21:44 34.186656 -115.686495 228 16036ft 351kts
23-Dec-17 21:45 34.127650 -115.752921 227 14478ft 352kts
23-Dec-17 21:46 34.051298 -115.819595 217 12631ft 330kts
23-Dec-17 21:47 33.980116 -115.877134 217 11111ft 288kts
23-Dec-17 21:48 33.921092 -115.924865 218 11052ft 243kts
23-Dec-17 21:49 33.899843 -115.987847 267 11046ft 239kts
23-Dec-17 21:50 33.895124 -116.056726 265 9567ft 251kts
23-Dec-17 21:51 33.845701 -116.106760 205 7786ft 250kts
23-Dec-17 21:52 33.785976 -116.140031 205 7286ft 225kts
23-Dec-17 21:53 33.733417 -116.169200 204 7293ft 213kts
23-Dec-17 21:54 33.689880 -116.212112 263 5950ft 219kts
23-Dec-17 21:55 33.682915 -116.283608 264 4308ft 219kts
23-Dec-17 22:24 33.823711 -116.506188 225 484ft 0kts
23-Dec-17 22:25 33.823711 -116.506188 225 484ft 0kts
23-Dec-17 22:26 33.823711 -116.506188 225 484ft 0kts
23-Dec-17 22:27 33.823711 -116.506188 225 484ft 0kts

Navigation Log

Ident Type
Flight plan parsing failed, navigation log unavailable